sensor_id;sensor_type;location;lat;lon;timestamp;pressure;altitude;pressure_sealevel;temperature;humidity
4024;BME280;2026;51.002;13.668;2024-01-30T00:00:22;100560.69;;;-0.09;73.00
4024;BME280;2026;51.002;13.668;2024-01-30T00:05:25;100554.19;;;-0.31;74.16
4024;BME280;2026;51.002;13.668;2024-01-30T00:10:29;100553.94;;;-0.26;73.82
4024;BME280;2026;51.002;13.668;2024-01-30T00:15:32;100557.34;;;-0.40;74.07
4024;BME280;2026;51.002;13.668;2024-01-30T00:20:36;100554.94;;;-0.29;73.98
4024;BME280;2026;51.002;13.668;2024-01-30T00:25:41;100553.34;;;-0.17;73.77
4024;BME280;2026;51.002;13.668;2024-01-30T00:30:43;100556.13;;;-0.20;73.63
4024;BME280;2026;51.002;13.668;2024-01-30T00:35:46;100556.25;;;-0.36;74.05
4024;BME280;2026;51.002;13.668;2024-01-30T00:40:51;100555.56;;;-0.25;73.82
4024;BME280;2026;51.002;13.668;2024-01-30T00:45:54;100553.47;;;-0.47;74.70
4024;BME280;2026;51.002;13.668;2024-01-30T00:50:57;100558.44;;;-0.59;75.47
4024;BME280;2026;51.002;13.668;2024-01-30T00:56:01;100548.97;;;-0.60;75.25
4024;BME280;2026;51.002;13.668;2024-01-30T01:01:05;100551.97;;;-0.37;74.33
4024;BME280;2026;51.002;13.668;2024-01-30T01:06:09;100550.41;;;-0.54;75.42
4024;BME280;2026;51.002;13.668;2024-01-30T01:11:13;100554.84;;;-0.56;75.08
4024;BME280;2026;51.002;13.668;2024-01-30T01:16:16;100554.00;;;-0.71;75.97
4024;BME280;2026;51.002;13.668;2024-01-30T01:21:20;100550.63;;;-0.73;76.04
4024;BME280;2026;51.002;13.668;2024-01-30T01:26:24;100539.63;;;-0.77;75.77
4024;BME280;2026;51.002;13.668;2024-01-30T01:31:27;100545.91;;;-0.66;75.61
4024;BME280;2026;51.002;13.668;2024-01-30T01:36:31;100543.06;;;-0.62;75.54
4024;BME280;2026;51.002;13.668;2024-01-30T01:41:35;100548.25;;;-0.62;75.22
4024;BME280;2026;51.002;13.668;2024-01-30T01:46:38;100552.53;;;-0.61;75.19
4024;BME280;2026;51.002;13.668;2024-01-30T01:51:42;100542.59;;;-0.68;75.21
4024;BME280;2026;51.002;13.668;2024-01-30T01:56:48;100543.72;;;-0.72;75.46
4024;BME280;2026;51.002;13.668;2024-01-30T02:01:51;100541.13;;;-0.72;75.72
4024;BME280;2026;51.002;13.668;2024-01-30T02:06:55;100541.13;;;-0.72;76.07
4024;BME280;2026;51.002;13.668;2024-01-30T02:12:00;100531.09;;;-0.79;76.11
4024;BME280;2026;51.002;13.668;2024-01-30T02:17:03;100532.28;;;-0.70;75.69
4024;BME280;2026;51.002;13.668;2024-01-30T02:22:08;100521.88;;;-0.99;76.64
4024;BME280;2026;51.002;13.668;2024-01-30T02:27:12;100530.97;;;-0.91;76.68
4024;BME280;2026;51.002;13.668;2024-01-30T02:32:15;100527.03;;;-0.83;76.10
4024;BME280;2026;51.002;13.668;2024-01-30T02:37:19;100524.56;;;-1.00;76.95
4024;BME280;2026;51.002;13.668;2024-01-30T02:42:22;100526.63;;;-0.91;76.97
4024;BME280;2026;51.002;13.668;2024-01-30T02:47:25;100524.03;;;-0.77;76.16
4024;BME280;2026;51.002;13.668;2024-01-30T02:52:29;100519.25;;;-0.83;76.46
4024;BME280;2026;51.002;13.668;2024-01-30T02:57:32;100518.03;;;-0.77;76.02
4024;BME280;2026;51.002;13.668;2024-01-30T03:02:36;100515.81;;;-0.69;75.35
4024;BME280;2026;51.002;13.668;2024-01-30T03:07:40;100509.13;;;-0.87;76.22
4024;BME280;2026;51.002;13.668;2024-01-30T03:12:43;100513.06;;;-0.96;76.92
4024;BME280;2026;51.002;13.668;2024-01-30T03:17:46;100511.53;;;-0.84;76.47
4024;BME280;2026;51.002;13.668;2024-01-30T03:22:50;100507.56;;;-1.20;77.60
4024;BME280;2026;51.002;13.668;2024-01-30T03:27:53;100510.22;;;-1.06;77.37
4024;BME280;2026;51.002;13.668;2024-01-30T03:32:56;100504.38;;;-0.95;76.86
4024;BME280;2026;51.002;13.668;2024-01-30T03:38:00;100513.66;;;-0.91;76.43
4024;BME280;2026;51.002;13.668;2024-01-30T03:43:03;100505.59;;;-0.86;76.20
4024;BME280;2026;51.002;13.668;2024-01-30T03:48:07;100509.78;;;-0.84;75.88
4024;BME280;2026;51.002;13.668;2024-01-30T03:53:11;100510.84;;;-0.88;76.02
4024;BME280;2026;51.002;13.668;2024-01-30T03:58:14;100509.81;;;-1.00;76.62
4024;BME280;2026;51.002;13.668;2024-01-30T04:03:17;100498.44;;;-0.97;76.86
4024;BME280;2026;51.002;13.668;2024-01-30T04:08:21;100497.72;;;-0.85;76.76
4024;BME280;2026;51.002;13.668;2024-01-30T04:13:24;100507.63;;;-0.91;77.26
4024;BME280;2026;51.002;13.668;2024-01-30T04:18:27;100503.94;;;-0.87;76.98
4024;BME280;2026;51.002;13.668;2024-01-30T04:23:32;100493.28;;;-0.83;76.62
4024;BME280;2026;51.002;13.668;2024-01-30T04:28:35;100498.56;;;-0.84;76.69
4024;BME280;2026;51.002;13.668;2024-01-30T04:33:38;100495.50;;;-0.91;76.79
4024;BME280;2026;51.002;13.668;2024-01-30T04:38:42;100499.47;;;-0.85;76.51
4024;BME280;2026;51.002;13.668;2024-01-30T04:43:45;100490.84;;;-1.00;77.14
4024;BME280;2026;51.002;13.668;2024-01-30T04:48:48;100492.00;;;-1.20;78.04
4024;BME280;2026;51.002;13.668;2024-01-30T04:53:52;100497.72;;;-0.99;77.08
4024;BME280;2026;51.002;13.668;2024-01-30T04:58:55;100495.94;;;-0.99;77.05
4024;BME280;2026;51.002;13.668;2024-01-30T05:03:58;100489.16;;;-1.01;77.55
4024;BME280;2026;51.002;13.668;2024-01-30T05:09:04;100489.47;;;-0.91;76.55
4024;BME280;2026;51.002;13.668;2024-01-30T05:14:07;100490.66;;;-0.97;77.07
4024;BME280;2026;51.002;13.668;2024-01-30T05:19:11;100473.88;;;-1.20;77.87
4024;BME280;2026;51.002;13.668;2024-01-30T05:24:15;100484.16;;;-1.19;78.30
4024;BME280;2026;51.002;13.668;2024-01-30T05:29:21;100486.47;;;-1.14;78.59
4024;BME280;2026;51.002;13.668;2024-01-30T05:34:24;100480.47;;;-1.00;79.63
4024;BME280;2026;51.002;13.668;2024-01-30T05:39:29;100474.34;;;-1.14;78.44
4024;BME280;2026;51.002;13.668;2024-01-30T05:44:34;100487.59;;;-1.04;78.70
4024;BME280;2026;51.002;13.668;2024-01-30T05:49:37;100487.91;;;-0.94;78.57
4024;BME280;2026;51.002;13.668;2024-01-30T05:54:42;100480.81;;;-1.06;78.74
4024;BME280;2026;51.002;13.668;2024-01-30T05:59:45;100484.06;;;-1.17;78.70
4024;BME280;2026;51.002;13.668;2024-01-30T06:04:49;100488.59;;;-1.06;78.06
4024;BME280;2026;51.002;13.668;2024-01-30T06:09:53;100486.88;;;-1.06;78.00
4024;BME280;2026;51.002;13.668;2024-01-30T06:14:56;100486.19;;;-1.24;78.41
4024;BME280;2026;51.002;13.668;2024-01-30T06:19:59;100482.38;;;-1.18;78.39
4024;BME280;2026;51.002;13.668;2024-01-30T06:25:04;100482.88;;;-1.42;78.41
4024;BME280;2026;51.002;13.668;2024-01-30T06:30:08;100480.59;;;-1.32;78.52
4024;BME280;2026;51.002;13.668;2024-01-30T06:35:11;100480.03;;;-1.23;78.52
4024;BME280;2026;51.002;13.668;2024-01-30T06:40:15;100474.03;;;-1.23;78.42
4024;BME280;2026;51.002;13.668;2024-01-30T06:45:18;100477.66;;;-1.12;78.16
4024;BME280;2026;51.002;13.668;2024-01-30T06:50:21;100478.22;;;-1.06;78.29
4024;BME280;2026;51.002;13.668;2024-01-30T06:55:26;100476.38;;;-1.04;78.25
4024;BME280;2026;51.002;13.668;2024-01-30T07:00:29;100477.44;;;-0.93;77.83
4024;BME280;2026;51.002;13.668;2024-01-30T07:05:32;100480.59;;;-0.87;77.54
4024;BME280;2026;51.002;13.668;2024-01-30T07:10:36;100481.13;;;-0.82;77.81
4024;BME280;2026;51.002;13.668;2024-01-30T07:15:39;100481.41;;;-0.87;77.66
4024;BME280;2026;51.002;13.668;2024-01-30T07:20:42;100481.88;;;-0.80;78.22
4024;BME280;2026;51.002;13.668;2024-01-30T07:25:49;100482.06;;;-0.54;77.19
4024;BME280;2026;51.002;13.668;2024-01-30T07:30:54;100483.63;;;-0.66;78.51
4024;BME280;2026;51.002;13.668;2024-01-30T07:35:57;100473.16;;;-0.50;77.58
4024;BME280;2026;51.002;13.668;2024-01-30T07:41:01;100489.09;;;-0.28;77.29
4024;BME280;2026;51.002;13.668;2024-01-30T07:46:04;100480.25;;;-0.11;77.10
4024;BME280;2026;51.002;13.668;2024-01-30T07:51:08;100481.56;;;0.09;76.38
4024;BME280;2026;51.002;13.668;2024-01-30T07:56:12;100482.63;;;0.07;76.62
4024;BME280;2026;51.002;13.668;2024-01-30T08:01:15;100474.81;;;0.34;76.18
4024;BME280;2026;51.002;13.668;2024-01-30T08:06:18;100483.47;;;0.47;76.43
4024;BME280;2026;51.002;13.668;2024-01-30T08:11:23;100479.16;;;0.73;75.87
4024;BME280;2026;51.002;13.668;2024-01-30T08:16:27;100477.63;;;1.22;75.12
4024;BME280;2026;51.002;13.668;2024-01-30T08:21:30;100473.94;;;1.51;74.70
4024;BME280;2026;51.002;13.668;2024-01-30T08:26:41;100471.53;;;1.97;72.54
4024;BME280;2026;51.002;13.668;2024-01-30T08:31:44;100473.75;;;2.39;70.84
4024;BME280;2026;51.002;13.668;2024-01-30T08:36:48;100484.88;;;2.65;70.40
4024;BME280;2026;51.002;13.668;2024-01-30T08:41:52;100478.25;;;2.72;70.46
4024;BME280;2026;51.002;13.668;2024-01-30T08:46:55;100473.09;;;3.18;70.11
4024;BME280;2026;51.002;13.668;2024-01-30T08:52:00;100483.81;;;3.37;68.64
4024;BME280;2026;51.002;13.668;2024-01-30T08:57:05;100489.28;;;3.79;67.04
4024;BME280;2026;51.002;13.668;2024-01-30T09:02:08;100492.47;;;3.83;66.76
4024;BME280;2026;51.002;13.668;2024-01-30T09:07:13;100496.72;;;3.84;67.22
4024;BME280;2026;51.002;13.668;2024-01-30T09:12:18;100498.88;;;3.90;67.70
4024;BME280;2026;51.002;13.668;2024-01-30T09:17:21;100511.19;;;4.11;67.51
4024;BME280;2026;51.002;13.668;2024-01-30T09:22:23;100514.28;;;4.48;66.87
4024;BME280;2026;51.002;13.668;2024-01-30T09:27:28;100493.75;;;4.65;66.52
4024;BME280;2026;51.002;13.668;2024-01-30T09:32:31;100495.09;;;5.01;64.50
4024;BME280;2026;51.002;13.668;2024-01-30T09:37:34;100504.44;;;5.15;63.81
4024;BME280;2026;51.002;13.668;2024-01-30T09:42:40;100498.09;;;5.17;63.12
4024;BME280;2026;51.002;13.668;2024-01-30T09:47:45;100483.72;;;5.43;62.18
4024;BME280;2026;51.002;13.668;2024-01-30T09:52:49;100484.22;;;5.67;62.46
4024;BME280;2026;51.002;13.668;2024-01-30T09:57:55;100482.50;;;5.78;60.54
4024;BME280;2026;51.002;13.668;2024-01-30T10:02:59;100482.66;;;5.96;60.02
4024;BME280;2026;51.002;13.668;2024-01-30T10:08:05;100474.69;;;6.07;59.39
4024;BME280;2026;51.002;13.668;2024-01-30T10:13:11;100467.94;;;6.04;59.06
4024;BME280;2026;51.002;13.668;2024-01-30T10:18:14;100460.09;;;6.24;58.09
4024;BME280;2026;51.002;13.668;2024-01-30T10:23:20;100457.31;;;6.25;58.11
4024;BME280;2026;51.002;13.668;2024-01-30T10:28:27;100454.81;;;6.53;58.14
4024;BME280;2026;51.002;13.668;2024-01-30T10:33:31;100446.78;;;6.74;56.46
4024;BME280;2026;51.002;13.668;2024-01-30T10:38:35;100440.84;;;6.82;56.83
4024;BME280;2026;51.002;13.668;2024-01-30T10:43:41;100434.72;;;6.91;56.38
4024;BME280;2026;51.002;13.668;2024-01-30T10:48:51;100429.19;;;6.94;56.27
4024;BME280;2026;51.002;13.668;2024-01-30T10:54:00;100411.44;;;7.06;55.65
4024;BME280;2026;51.002;13.668;2024-01-30T10:59:05;100416.19;;;6.83;56.41
4024;BME280;2026;51.002;13.668;2024-01-30T11:04:13;100427.84;;;6.71;56.73
4024;BME280;2026;51.002;13.668;2024-01-30T11:09:18;100403.56;;;6.96;56.32
4024;BME280;2026;51.002;13.668;2024-01-30T11:14:26;100390.59;;;6.95;56.74
4024;BME280;2026;51.002;13.668;2024-01-30T11:19:33;100384.66;;;6.93;56.98
4024;BME280;2026;51.002;13.668;2024-01-30T11:24:39;100381.84;;;7.04;56.43
4024;BME280;2026;51.002;13.668;2024-01-30T11:29:50;100370.50;;;6.66;57.15
4024;BME280;2026;51.002;13.668;2024-01-30T11:34:53;100381.63;;;6.88;57.04
4024;BME280;2026;51.002;13.668;2024-01-30T11:39:58;100378.06;;;6.79;57.39
4024;BME280;2026;51.002;13.668;2024-01-30T11:45:04;100395.47;;;6.80;57.20
4024;BME280;2026;51.002;13.668;2024-01-30T11:50:07;100386.75;;;6.89;57.30
4024;BME280;2026;51.002;13.668;2024-01-30T11:55:13;100379.72;;;7.17;56.70
4024;BME280;2026;51.002;13.668;2024-01-30T12:00:18;100375.97;;;7.20;55.90
4024;BME280;2026;51.002;13.668;2024-01-30T12:05:23;100370.97;;;6.89;56.99
4024;BME280;2026;51.002;13.668;2024-01-30T12:10:26;100374.03;;;6.84;57.39
4024;BME280;2026;51.002;13.668;2024-01-30T12:15:31;100370.03;;;6.90;57.16
4024;BME280;2026;51.002;13.668;2024-01-30T12:20:34;100365.66;;;6.61;57.67
4024;BME280;2026;51.002;13.668;2024-01-30T12:25:37;100362.91;;;6.53;57.99
4024;BME280;2026;51.002;13.668;2024-01-30T12:30:42;100369.69;;;6.56;57.62
4024;BME280;2026;51.002;13.668;2024-01-30T12:35:48;100355.41;;;6.68;57.08
4024;BME280;2026;51.002;13.668;2024-01-30T12:41:03;100353.47;;;6.70;57.24
4024;BME280;2026;51.002;13.668;2024-01-30T12:46:08;100347.81;;;6.65;56.80
4024;BME280;2026;51.002;13.668;2024-01-30T12:51:11;100351.28;;;6.65;56.80
4024;BME280;2026;51.002;13.668;2024-01-30T12:56:14;100346.38;;;6.33;58.17
4024;BME280;2026;51.002;13.668;2024-01-30T13:01:18;100341.22;;;6.61;57.59
4024;BME280;2026;51.002;13.668;2024-01-30T13:06:22;100344.13;;;6.48;57.88
4024;BME280;2026;51.002;13.668;2024-01-30T13:11:25;100350.53;;;6.36;58.30
4024;BME280;2026;51.002;13.668;2024-01-30T13:16:29;100349.28;;;6.30;58.48
4024;BME280;2026;51.002;13.668;2024-01-30T13:21:32;100350.06;;;6.50;58.46
4024;BME280;2026;51.002;13.668;2024-01-30T13:26:35;100346.00;;;6.75;57.76
4024;BME280;2026;51.002;13.668;2024-01-30T13:31:40;100342.22;;;6.88;57.50
4024;BME280;2026;51.002;13.668;2024-01-30T13:36:43;100329.50;;;6.83;56.90
4024;BME280;2026;51.002;13.668;2024-01-30T13:41:46;100324.94;;;6.85;57.21
4024;BME280;2026;51.002;13.668;2024-01-30T13:46:51;100317.28;;;6.64;58.44
4024;BME280;2026;51.002;13.668;2024-01-30T13:51:54;100319.06;;;6.63;57.99
4024;BME280;2026;51.002;13.668;2024-01-30T13:56:58;100317.59;;;6.61;58.46
4024;BME280;2026;51.002;13.668;2024-01-30T14:02:03;100316.88;;;6.69;58.56
4024;BME280;2026;51.002;13.668;2024-01-30T14:07:07;100318.53;;;6.60;58.90
4024;BME280;2026;51.002;13.668;2024-01-30T14:12:10;100309.03;;;6.59;58.37
4024;BME280;2026;51.002;13.668;2024-01-30T14:17:14;100310.00;;;6.48;58.80
4024;BME280;2026;51.002;13.668;2024-01-30T14:22:17;100314.59;;;6.46;58.65
4024;BME280;2026;51.002;13.668;2024-01-30T14:27:20;100317.66;;;6.32;59.24
4024;BME280;2026;51.002;13.668;2024-01-30T14:32:25;100317.88;;;6.48;58.75
4024;BME280;2026;51.002;13.668;2024-01-30T14:37:28;100317.22;;;6.36;58.93
4024;BME280;2026;51.002;13.668;2024-01-30T14:42:31;100317.00;;;6.10;58.86
4024;BME280;2026;51.002;13.668;2024-01-30T14:47:36;100313.25;;;5.83;59.56
4024;BME280;2026;51.002;13.668;2024-01-30T14:52:39;100325.94;;;5.68;60.14
4024;BME280;2026;51.002;13.668;2024-01-30T14:57:42;100324.63;;;5.14;61.37
4024;BME280;2026;51.002;13.668;2024-01-30T15:02:48;100322.19;;;5.32;61.21
4024;BME280;2026;51.002;13.668;2024-01-30T15:07:51;100308.63;;;4.76;62.98
4024;BME280;2026;51.002;13.668;2024-01-30T15:12:55;100319.38;;;4.21;64.71
4024;BME280;2026;51.002;13.668;2024-01-30T15:17:59;100323.97;;;4.60;64.06
4024;BME280;2026;51.002;13.668;2024-01-30T15:23:02;100312.66;;;4.80;63.83
4024;BME280;2026;51.002;13.668;2024-01-30T15:28:05;100307.97;;;4.84;62.49
4024;BME280;2026;51.002;13.668;2024-01-30T15:33:10;100317.72;;;4.72;63.12
4024;BME280;2026;51.002;13.668;2024-01-30T15:38:14;100317.50;;;4.85;63.04
4024;BME280;2026;51.002;13.668;2024-01-30T15:43:18;100318.75;;;4.91;63.75
4024;BME280;2026;51.002;13.668;2024-01-30T15:48:22;100312.19;;;4.66;63.81
4024;BME280;2026;51.002;13.668;2024-01-30T15:53:26;100319.25;;;4.23;64.51
4024;BME280;2026;51.002;13.668;2024-01-30T15:58:29;100336.63;;;4.55;64.27
4024;BME280;2026;51.002;13.668;2024-01-30T16:03:33;100335.38;;;4.49;64.13
4024;BME280;2026;51.002;13.668;2024-01-30T16:08:36;100333.00;;;4.46;63.59
4024;BME280;2026;51.002;13.668;2024-01-30T16:13:39;100347.63;;;4.49;64.04
4024;BME280;2026;51.002;13.668;2024-01-30T16:18:44;100341.03;;;4.54;64.47
4024;BME280;2026;51.002;13.668;2024-01-30T16:23:47;100347.09;;;4.55;64.16
4024;BME280;2026;51.002;13.668;2024-01-30T16:28:50;100342.31;;;4.60;63.95
4024;BME280;2026;51.002;13.668;2024-01-30T16:33:54;100341.44;;;4.50;64.18
4024;BME280;2026;51.002;13.668;2024-01-30T16:38:58;100357.38;;;4.04;65.31
4024;BME280;2026;51.002;13.668;2024-01-30T16:44:04;100362.19;;;4.20;64.87
4024;BME280;2026;51.002;13.668;2024-01-30T16:49:09;100353.41;;;4.10;64.10
4024;BME280;2026;51.002;13.668;2024-01-30T16:54:12;100356.44;;;4.05;64.47
4024;BME280;2026;51.002;13.668;2024-01-30T16:59:15;100366.72;;;3.86;64.66
4024;BME280;2026;51.002;13.668;2024-01-30T17:04:20;100371.38;;;3.82;64.79
4024;BME280;2026;51.002;13.668;2024-01-30T17:09:24;100372.03;;;3.96;65.44
4024;BME280;2026;51.002;13.668;2024-01-30T17:14:27;100373.06;;;4.04;65.51
4024;BME280;2026;51.002;13.668;2024-01-30T17:19:31;100371.38;;;3.82;65.26
4024;BME280;2026;51.002;13.668;2024-01-30T17:24:35;100366.28;;;3.81;65.37
4024;BME280;2026;51.002;13.668;2024-01-30T17:29:50;100361.00;;;3.48;66.57
4024;BME280;2026;51.002;13.668;2024-01-30T17:34:55;100361.09;;;3.58;65.74
4024;BME280;2026;51.002;13.668;2024-01-30T17:39:58;100365.53;;;3.46;66.40
4024;BME280;2026;51.002;13.668;2024-01-30T17:45:01;100365.31;;;3.16;67.12
4024;BME280;2026;51.002;13.668;2024-01-30T17:50:07;100366.75;;;3.08;68.25
4024;BME280;2026;51.002;13.668;2024-01-30T17:55:10;100372.91;;;3.30;67.18
4024;BME280;2026;51.002;13.668;2024-01-30T18:00:13;100387.75;;;2.84;68.75
4024;BME280;2026;51.002;13.668;2024-01-30T18:05:21;100380.88;;;3.17;67.67
4024;BME280;2026;51.002;13.668;2024-01-30T18:10:24;100382.66;;;3.05;67.97
4024;BME280;2026;51.002;13.668;2024-01-30T18:15:27;100374.22;;;2.68;69.41
4024;BME280;2026;51.002;13.668;2024-01-30T18:20:32;100368.75;;;3.16;67.70
4024;BME280;2026;51.002;13.668;2024-01-30T18:25:34;100391.13;;;2.39;70.23
4024;BME280;2026;51.002;13.668;2024-01-30T18:30:37;100383.31;;;2.51;69.99
4024;BME280;2026;51.002;13.668;2024-01-30T18:35:42;100393.75;;;1.43;73.84
4024;BME280;2026;51.002;13.668;2024-01-30T18:40:45;100397.66;;;2.45;69.90
4024;BME280;2026;51.002;13.668;2024-01-30T18:45:52;100398.19;;;2.62;69.27
4024;BME280;2026;51.002;13.668;2024-01-30T18:50:57;100390.34;;;2.73;68.60
4024;BME280;2026;51.002;13.668;2024-01-30T18:56:01;100386.56;;;2.77;68.62
4024;BME280;2026;51.002;13.668;2024-01-30T19:01:04;100389.53;;;2.84;68.55
4024;BME280;2026;51.002;13.668;2024-01-30T19:06:09;100401.94;;;2.11;71.36
4024;BME280;2026;51.002;13.668;2024-01-30T19:11:17;100399.69;;;2.53;70.05
4024;BME280;2026;51.002;13.668;2024-01-30T19:16:20;100398.59;;;2.44;70.18
4024;BME280;2026;51.002;13.668;2024-01-30T19:21:25;100413.84;;;1.78;72.57
4024;BME280;2026;51.002;13.668;2024-01-30T19:26:28;100397.16;;;2.29;70.83
4024;BME280;2026;51.002;13.668;2024-01-30T19:31:31;100409.69;;;1.99;72.44
4024;BME280;2026;51.002;13.668;2024-01-30T19:36:35;100419.88;;;2.27;71.33
4024;BME280;2026;51.002;13.668;2024-01-30T19:41:40;100419.19;;;2.36;71.10
4024;BME280;2026;51.002;13.668;2024-01-30T19:46:45;100431.44;;;1.87;72.99
4024;BME280;2026;51.002;13.668;2024-01-30T19:51:50;100424.59;;;2.21;71.73
4024;BME280;2026;51.002;13.668;2024-01-30T19:56:53;100435.94;;;2.45;70.99
4024;BME280;2026;51.002;13.668;2024-01-30T20:01:56;100436.53;;;2.13;72.37
4024;BME280;2026;51.002;13.668;2024-01-30T20:07:01;100445.75;;;2.65;70.58
4024;BME280;2026;51.002;13.668;2024-01-30T20:12:05;100441.84;;;2.71;70.00
4024;BME280;2026;51.002;13.668;2024-01-30T20:17:08;100449.84;;;2.45;71.08
4024;BME280;2026;51.002;13.668;2024-01-30T20:22:16;100459.78;;;2.51;70.99
4024;BME280;2026;51.002;13.668;2024-01-30T20:27:19;100445.72;;;2.54;70.29
4024;BME280;2026;51.002;13.668;2024-01-30T20:32:22;100447.50;;;2.53;70.18
4024;BME280;2026;51.002;13.668;2024-01-30T20:37:27;100462.19;;;2.19;71.91
4024;BME280;2026;51.002;13.668;2024-01-30T20:42:30;100460.38;;;1.71;73.49
4024;BME280;2026;51.002;13.668;2024-01-30T20:47:33;100460.06;;;2.24;72.19
4024;BME280;2026;51.002;13.668;2024-01-30T20:52:38;100461.09;;;2.46;71.08
4024;BME280;2026;51.002;13.668;2024-01-30T20:57:41;100461.94;;;1.98;72.81
4024;BME280;2026;51.002;13.668;2024-01-30T21:02:44;100465.56;;;2.32;71.76
4024;BME280;2026;51.002;13.668;2024-01-30T21:07:48;100459.94;;;2.26;72.15
4024;BME280;2026;51.002;13.668;2024-01-30T21:12:51;100461.97;;;2.22;72.15
4024;BME280;2026;51.002;13.668;2024-01-30T21:17:54;100460.53;;;1.81;73.54
4024;BME280;2026;51.002;13.668;2024-01-30T21:22:58;100459.84;;;2.27;71.67
4024;BME280;2026;51.002;13.668;2024-01-30T21:28:02;100469.50;;;2.14;71.71
4024;BME280;2026;51.002;13.668;2024-01-30T21:33:05;100474.03;;;2.23;71.73
4024;BME280;2026;51.002;13.668;2024-01-30T21:38:10;100469.47;;;2.38;71.14
4024;BME280;2026;51.002;13.668;2024-01-30T21:43:13;100476.25;;;2.16;71.80
4024;BME280;2026;51.002;13.668;2024-01-30T21:48:16;100476.75;;;1.97;72.00
4024;BME280;2026;51.002;13.668;2024-01-30T21:53:21;100484.28;;;1.89;72.99
4024;BME280;2026;51.002;13.668;2024-01-30T21:58:23;100485.50;;;1.96;72.54
4024;BME280;2026;51.002;13.668;2024-01-30T22:03:27;100485.00;;;1.91;72.54
4024;BME280;2026;51.002;13.668;2024-01-30T22:08:31;100480.91;;;2.00;72.60
4024;BME280;2026;51.002;13.668;2024-01-30T22:13:34;100479.69;;;1.93;72.44
4024;BME280;2026;51.002;13.668;2024-01-30T22:18:37;100478.13;;;1.90;72.37
4024;BME280;2026;51.002;13.668;2024-01-30T22:23:41;100479.69;;;1.93;72.58
4024;BME280;2026;51.002;13.668;2024-01-30T22:28:44;100484.03;;;1.55;73.87
4024;BME280;2026;51.002;13.668;2024-01-30T22:33:47;100479.63;;;1.69;73.65
4024;BME280;2026;51.002;13.668;2024-01-30T22:38:51;100484.91;;;1.93;72.68
4024;BME280;2026;51.002;13.668;2024-01-30T22:43:54;100482.75;;;1.74;72.88
4024;BME280;2026;51.002;13.668;2024-01-30T22:48:57;100489.31;;;1.79;73.03
4024;BME280;2026;51.002;13.668;2024-01-30T22:54:02;100494.78;;;1.51;74.43
4024;BME280;2026;51.002;13.668;2024-01-30T22:59:05;100492.25;;;1.62;73.92
4024;BME280;2026;51.002;13.668;2024-01-30T23:04:08;100491.66;;;1.58;73.97
4024;BME280;2026;51.002;13.668;2024-01-30T23:09:13;100491.38;;;1.24;75.34
4024;BME280;2026;51.002;13.668;2024-01-30T23:14:18;100496.34;;;1.53;74.48
4024;BME280;2026;51.002;13.668;2024-01-30T23:19:21;100494.06;;;1.48;75.02
4024;BME280;2026;51.002;13.668;2024-01-30T23:24:25;100500.28;;;1.59;74.56
4024;BME280;2026;51.002;13.668;2024-01-30T23:29:28;100501.75;;;1.63;74.23
4024;BME280;2026;51.002;13.668;2024-01-30T23:34:31;100493.22;;;1.35;75.27
4024;BME280;2026;51.002;13.668;2024-01-30T23:39:35;100494.38;;;1.44;75.25
4024;BME280;2026;51.002;13.668;2024-01-30T23:44:38;100499.97;;;1.51;75.19
4024;BME280;2026;51.002;13.668;2024-01-30T23:49:41;100499.91;;;1.39;75.87
4024;BME280;2026;51.002;13.668;2024-01-30T23:54:46;100501.53;;;1.66;75.34
4024;BME280;2026;51.002;13.668;2024-01-30T23:59:49;100498.31;;;1.62;75.25
